Time;durP1;ratioP1;P1;durP2;ratioP2;P2;SDS_P1;SDS_P2;PMS_P1;PMS_P2;Temp;Humidity;BMP_temperature;BMP_pressure;BME280_temperature;BME280_humidity;BME280_pressure;Samples;Min_cycle;Max_cycle;Signal;HPM_P1;HPM_P2
2022/01/31 00:02:21;;;;;;;22.88;6.60;;;;;;;;;;4965309;28;20031;-78
2022/01/31 00:04:49;;;;;;;24.67;6.60;;;;;;;;;;4971339;29;20054;-82
2022/01/31 00:07:29;;;;;;;26.00;6.97;;;;;;;;;;4970998;28;20051;-82
2022/01/31 00:10:07;;;;;;;22.33;6.22;;;;;;;;;;4962793;28;20045;-82
2022/01/31 00:13:27;;;;;;;24.75;6.10;;;;;;;;;;4978608;29;20035;-81
2022/01/31 00:15:25;;;;;;;32.10;6.38;;;;;;;;;;4959311;29;20030;-80
2022/01/31 00:17:52;;;;;;;28.50;5.75;;;;;;;;;;4962892;28;20023;-80
2022/01/31 00:20:19;;;;;;;18.63;5.75;;;;;;;;;;4963357;29;20043;-81
2022/01/31 00:22:46;;;;;;;26.90;6.22;;;;;;;;;;4962884;29;20039;-79
2022/01/31 00:25:15;;;;;;;20.38;5.43;;;;;;;;;;4962934;29;20101;-81
2022/01/31 00:27:41;;;;;;;24.90;5.53;;;;;;;;;;4977841;29;20054;-81
2022/01/31 00:30:09;;;;;;;21.52;5.82;;;;;;;;;;4977855;29;20070;-80
2022/01/31 00:32:36;;;;;;;19.20;5.22;;;;;;;;;;4979783;28;20037;-77
2022/01/31 00:35:25;;;;;;;;;;;;;;;;;;;;;
2022/01/31 00:37:52;;;;;;;23.15;5.00;;;;;;;;;;4980998;28;20023;-77
2022/01/31 00:40:18;;;;;;;22.55;5.30;;;;;;;;;;4964406;29;20034;-80
2022/01/31 00:42:50;;;;;;;16.90;4.35;;;;;;;;;;4962870;29;20033;-80
2022/01/31 00:45:25;;;;;;;25.92;5.03;;;;;;;;;;4962762;29;20043;-80
2022/01/31 00:48:03;;;;;;;22.23;5.53;;;;;;;;;;4963286;28;20078;-80
2022/01/31 00:50:47;;;;;;;21.73;5.15;;;;;;;;;;4978179;29;20050;-81
2022/01/31 00:53:14;;;;;;;25.85;5.28;;;;;;;;;;4961978;29;20046;-80
2022/01/31 00:55:41;;;;;;;23.27;5.20;;;;;;;;;;4961760;29;20043;-81
2022/01/31 00:58:07;;;;;;;19.85;4.97;;;;;;;;;;4961359;29;20066;-82
2022/01/31 01:00:33;;;;;;;16.77;4.78;;;;;;;;;;4977311;29;20043;-80
2022/01/31 01:02:59;;;;;;;18.13;5.13;;;;;;;;;;4976785;29;20095;-81
2022/01/31 01:05:27;;;;;;;16.38;4.88;;;;;;;;;;4961563;29;20054;-82
2022/01/31 01:07:54;;;;;;;20.17;4.68;;;;;;;;;;4964633;29;20107;-81
2022/01/31 01:10:28;;;;;;;22.75;5.70;;;;;;;;;;4967094;29;20040;-80
2022/01/31 01:13:24;;;;;;;17.17;4.90;;;;;;;;;;4984084;28;20035;-79
2022/01/31 01:16:13;;;;;;;21.67;5.32;;;;;;;;;;4982404;28;20035;-79
2022/01/31 01:18:54;;;;;;;21.58;4.95;;;;;;;;;;4983518;28;20035;-79
2022/01/31 01:21:21;;;;;;;20.10;5.00;;;;;;;;;;4982617;28;20043;-79
2022/01/31 01:23:48;;;;;;;18.25;4.97;;;;;;;;;;4967110;29;20047;-81
2022/01/31 01:26:15;;;;;;;18.73;4.40;;;;;;;;;;4983268;28;20027;-82
2022/01/31 01:28:45;;;;;;;27.13;5.28;;;;;;;;;;4967587;28;20044;-79
2022/01/31 01:31:11;;;;;;;16.83;4.03;;;;;;;;;;4983570;28;20066;-80
2022/01/31 01:33:40;;;;;;;23.48;4.82;;;;;;;;;;4967773;29;20023;-78
2022/01/31 01:36:19;;;;;;;20.83;4.82;;;;;;;;;;4967451;28;20039;-79
2022/01/31 01:39:06;;;;;;;21.00;4.75;;;;;;;;;;4967999;28;20083;-79
2022/01/31 01:41:34;;;;;;;18.95;4.88;;;;;;;;;;4982307;28;20016;-80
2022/01/31 01:44:01;;;;;;;21.92;4.75;;;;;;;;;;4968035;28;20023;-80
2022/01/31 01:46:27;;;;;;;22.88;5.07;;;;;;;;;;4967490;28;20031;-78
2022/01/31 01:48:54;;;;;;;21.67;5.00;;;;;;;;;;4967537;29;20027;-78
2022/01/31 01:51:25;;;;;;;22.90;4.82;;;;;;;;;;4983260;28;20051;-78
2022/01/31 01:54:04;;;;;;;;;;;;;;;;;;;;;
2022/01/31 01:56:44;;;;;;;;;;;;;;;;;;;;;
2022/01/31 01:59:56;;;;;;;19.30;4.80;;;;;;;;;;4927255;29;20140;-82
2022/01/31 02:02:27;;;;;;;22.17;5.32;;;;;;;;;;4929022;29;20055;-83
2022/01/31 02:04:58;;;;;;;17.15;4.93;;;;;;;;;;4965550;29;20047;-80
2022/01/31 02:07:24;;;;;;;20.42;5.05;;;;;;;;;;4980675;29;20050;-81
2022/01/31 02:09:56;;;;;;;16.55;5.20;;;;;;;;;;4964981;28;20047;-81
2022/01/31 02:12:41;;;;;;;21.80;4.70;;;;;;;;;;4965606;28;20047;-78
2022/01/31 02:15:53;;;;;;;19.35;4.55;;;;;;;;;;4981325;29;20112;-81
2022/01/31 02:18:51;;;;;;;23.58;4.70;;;;;;;;;;4948105;28;20082;-79
2022/01/31 02:25:33;;;;;;;20.85;4.50;;;;;;;;;;4943400;29;20028;-79
2022/01/31 02:31:40;;;;;;;16.50;4.88;;;;;;;;;;4861631;29;20093;-79
2022/01/31 02:34:41;;;;;;;21.40;4.68;;;;;;;;;;4942171;29;20040;-78
2022/01/31 02:37:41;;;;;;;19.67;4.75;;;;;;;;;;4940899;29;20044;-81
2022/01/31 02:40:08;;;;;;;25.02;5.80;;;;;;;;;;4928221;29;20084;-78
2022/01/31 02:42:40;;;;;;;20.67;5.05;;;;;;;;;;4928263;29;20051;-79
2022/01/31 02:48:28;;;;;;;28.08;5.95;;;;;;;;;;4923702;29;20108;-80
2022/01/31 02:51:50;;;;;;;19.35;5.25;;;;;;;;;;4961691;29;20090;-78
2022/01/31 02:54:53;;;;;;;24.90;5.70;;;;;;;;;;4961130;29;20084;-77
2022/01/31 03:06:53;;;;;;;27.77;6.78;;;;;;;;;;4962061;28;20044;-78
2022/01/31 03:09:53;;;;;;;23.85;6.25;;;;;;;;;;4961928;28;20042;-77
2022/01/31 03:12:57;;;;;;;25.25;7.25;;;;;;;;;;4960415;28;20127;-76
2022/01/31 03:16:03;;;;;;;;;;;;;;;;;;;;;
2022/01/31 03:19:06;;;;;;;27.52;7.50;;;;;;;;;;4960080;28;20076;-76
2022/01/31 03:22:20;;;;;;;21.77;7.20;;;;;;;;;;4967744;28;20070;-78
2022/01/31 03:25:11;;;;;;;24.33;7.43;;;;;;;;;;4939618;29;20036;-77
2022/01/31 03:32:22;;;;;;;24.30;7.53;;;;;;;;;;4865468;29;20107;-76
2022/01/31 03:35:36;;;;;;;17.90;8.07;;;;;;;;;;4865483;29;20030;-76
2022/01/31 03:41:34;;;;;;;21.45;8.05;;;;;;;;;;4864259;29;20133;-76
2022/01/31 03:44:26;;;;;;;18.83;8.95;;;;;;;;;;4862426;29;20022;-76
2022/01/31 03:47:30;;;;;;;17.25;8.10;;;;;;;;;;4864731;29;20052;-76
2022/01/31 03:50:24;;;;;;;17.33;8.10;;;;;;;;;;4864924;29;20073;-76
2022/01/31 03:53:13;;;;;;;23.40;9.65;;;;;;;;;;4850216;29;20408;-76
2022/01/31 03:55:51;;;;;;;16.08;8.43;;;;;;;;;;4851311;29;20042;-76
2022/01/31 03:58:29;;;;;;;15.32;8.75;;;;;;;;;;4864308;29;20040;-76
2022/01/31 04:01:35;;;;;;;17.40;8.20;;;;;;;;;;4863964;29;20071;-77
2022/01/31 04:04:53;;;;;;;15.02;7.70;;;;;;;;;;4864457;29;20050;-76
2022/01/31 04:07:54;;;;;;;14.30;6.65;;;;;;;;;;4911475;29;20105;-76
2022/01/31 04:10:27;;;;;;;13.75;6.38;;;;;;;;;;4961968;29;20066;-77
2022/01/31 04:17:01;;;;;;;10.52;5.07;;;;;;;;;;4940098;28;20063;-77
2022/01/31 04:20:19;;;;;;;11.75;5.30;;;;;;;;;;4920534;29;20096;-76
2022/01/31 04:23:07;;;;;;;10.32;4.90;;;;;;;;;;4905666;29;20039;-79
2022/01/31 04:25:53;;;;;;;9.93;4.85;;;;;;;;;;4922658;29;20061;-78
2022/01/31 04:35:16;;;;;;;8.77;4.60;;;;;;;;;;4979193;28;20193;-79
2022/01/31 04:37:43;;;;;;;10.75;4.47;;;;;;;;;;4959339;29;20056;-80
2022/01/31 04:40:13;;;;;;;11.52;4.63;;;;;;;;;;4959800;28;20063;-80
2022/01/31 04:42:43;;;;;;;11.27;4.35;;;;;;;;;;4975627;28;20078;-80
2022/01/31 04:45:17;;;;;;;15.23;5.47;;;;;;;;;;4963570;28;20038;-79
2022/01/31 04:47:48;;;;;;;10.98;5.25;;;;;;;;;;4979534;28;20043;-79
2022/01/31 04:50:15;;;;;;;10.13;4.80;;;;;;;;;;4963872;28;20032;-79
2022/01/31 04:52:42;;;;;;;13.75;4.70;;;;;;;;;;4979169;28;20028;-78
2022/01/31 04:55:10;;;;;;;9.57;4.82;;;;;;;;;;4963732;28;20087;-79
2022/01/31 04:57:36;;;;;;;13.50;5.30;;;;;;;;;;4964535;28;20012;-76
2022/01/31 05:00:04;;;;;;;12.90;6.25;;;;;;;;;;4964451;28;20059;-75
2022/01/31 05:02:32;;;;;;;15.35;7.00;;;;;;;;;;4980062;28;20028;-78
2022/01/31 05:05:00;;;;;;;15.55;8.30;;;;;;;;;;4963989;28;20031;-78
2022/01/31 05:07:27;;;;;;;16.95;9.60;;;;;;;;;;4980360;28;20055;-79
2022/01/31 05:10:00;;;;;;;21.35;10.52;;;;;;;;;;4980508;28;20055;-78
2022/01/31 05:12:28;;;;;;;18.98;10.85;;;;;;;;;;4979892;28;20034;-78
2022/01/31 05:14:55;;;;;;;20.65;10.73;;;;;;;;;;4980038;28;20031;-78
2022/01/31 05:17:21;;;;;;;28.60;12.13;;;;;;;;;;4977595;28;20074;-79
2022/01/31 05:19:48;;;;;;;27.65;13.63;;;;;;;;;;4960480;29;20043;-79
2022/01/31 05:22:14;;;;;;;29.17;13.18;;;;;;;;;;4974835;29;20083;-80
2022/01/31 05:24:40;;;;;;;27.60;13.35;;;;;;;;;;4960510;28;20047;-80
2022/01/31 05:27:09;;;;;;;29.23;14.35;;;;;;;;;;4959754;29;20055;-80
2022/01/31 05:29:36;;;;;;;27.27;12.93;;;;;;;;;;4960366;29;20036;-80
2022/01/31 05:32:02;;;;;;;24.17;12.63;;;;;;;;;;4959171;29;20051;-80
2022/01/31 05:34:33;;;;;;;25.60;12.65;;;;;;;;;;4960193;29;20447;-76
2022/01/31 05:37:03;;;;;;;29.77;12.68;;;;;;;;;;4976250;29;20039;-78
2022/01/31 05:39:30;;;;;;;24.70;11.50;;;;;;;;;;4975537;28;20035;-76
2022/01/31 05:41:56;;;;;;;25.77;11.48;;;;;;;;;;4962443;29;20031;-78
2022/01/31 05:44:24;;;;;;;27.17;12.27;;;;;;;;;;4961575;29;20039;-76
2022/01/31 05:47:02;;;;;;;27.02;11.18;;;;;;;;;;4956449;29;20482;-76
2022/01/31 05:52:49;;;;;;;25.67;9.50;;;;;;;;;;4963517;28;20135;-76
2022/01/31 05:55:15;;;;;;;20.77;9.27;;;;;;;;;;4960206;29;20094;-80
2022/01/31 05:57:42;;;;;;;22.90;7.57;;;;;;;;;;4968205;29;20578;-80
2022/01/31 06:00:09;;;;;;;29.08;9.55;;;;;;;;;;4962689;29;20035;-80
2022/01/31 06:02:35;;;;;;;25.52;9.77;;;;;;;;;;4963167;29;20043;-80
2022/01/31 06:05:02;;;;;;;24.02;10.82;;;;;;;;;;4963205;29;20106;-82
2022/01/31 06:07:28;;;;;;;29.23;11.95;;;;;;;;;;4962721;29;20039;-79
2022/01/31 06:09:55;;;;;;;28.85;13.27;;;;;;;;;;4962973;29;20062;-77
2022/01/31 06:12:46;;;;;;;25.15;12.10;;;;;;;;;;4966132;29;20057;-78
2022/01/31 06:15:16;;;;;;;30.30;13.20;;;;;;;;;;4964727;29;20040;-78
2022/01/31 06:17:42;;;;;;;28.10;13.07;;;;;;;;;;4963011;29;20102;-78
2022/01/31 06:20:10;;;;;;;32.55;13.98;;;;;;;;;;4962596;29;20039;-78
2022/01/31 06:22:43;;;;;;;33.10;13.88;;;;;;;;;;4963445;29;20036;-78
2022/01/31 06:25:11;;;;;;;31.27;12.98;;;;;;;;;;4977997;29;20031;-77
2022/01/31 06:27:38;;;;;;;32.45;12.82;;;;;;;;;;4979214;29;20036;-77
2022/01/31 06:30:07;;;;;;;37.75;13.40;;;;;;;;;;4978068;29;20050;-77
2022/01/31 06:32:38;;;;;;;26.48;12.93;;;;;;;;;;4962599;29;20035;-78
2022/01/31 06:35:04;;;;;;;32.17;13.32;;;;;;;;;;4964088;29;20082;-77
2022/01/31 06:37:30;;;;;;;27.75;12.05;;;;;;;;;;4980591;28;20039;-79
2022/01/31 06:39:58;;;;;;;38.30;11.52;;;;;;;;;;4977191;29;20067;-79
2022/01/31 06:42:24;;;;;;;26.85;10.02;;;;;;;;;;4963326;29;20075;-79
2022/01/31 06:44:53;;;;;;;24.27;9.50;;;;;;;;;;4962250;29;20047;-78
2022/01/31 06:47:40;;;;;;;30.90;9.55;;;;;;;;;;4962960;29;20115;-78
2022/01/31 06:50:44;;;;;;;28.88;9.38;;;;;;;;;;4939585;29;20093;-79
2022/01/31 06:53:25;;;;;;;31.83;10.27;;;;;;;;;;4923773;29;20055;-79
2022/01/31 06:56:28;;;;;;;;;;;;;;;;;;;;;
2022/01/31 06:59:02;;;;;;;33.40;10.82;;;;;;;;;;4934220;29;20036;-76
2022/01/31 07:01:48;;;;;;;29.17;10.18;;;;;;;;;;4927708;29;20055;-79
2022/01/31 07:04:15;;;;;;;31.92;10.13;;;;;;;;;;4923975;29;20052;-80
2022/01/31 07:06:41;;;;;;;25.95;9.15;;;;;;;;;;4924125;29;20051;-79
2022/01/31 07:09:07;;;;;;;28.30;9.35;;;;;;;;;;4922320;29;20052;-78
2022/01/31 07:11:39;;;;;;;28.63;9.32;;;;;;;;;;4922871;29;20039;-78
2022/01/31 07:14:13;;;;;;;30.58;9.15;;;;;;;;;;4934236;29;20044;-77
2022/01/31 07:16:42;;;;;;;25.80;9.45;;;;;;;;;;4961212;29;20057;-77
2022/01/31 07:19:09;;;;;;;25.67;8.30;;;;;;;;;;4961831;29;20054;-78
2022/01/31 07:21:48;;;;;;;23.95;8.70;;;;;;;;;;4958355;29;20369;-78
2022/01/31 07:26:44;;;;;;;19.67;7.55;;;;;;;;;;4971540;29;20039;-77
2022/01/31 07:29:11;;;;;;;16.55;4.85;;;;;;;;;;4958249;29;20035;-77
2022/01/31 07:31:38;;;;;;;9.82;3.60;;;;;;;;;;4973646;29;20047;-76
2022/01/31 07:34:04;;;;;;;14.50;3.90;;;;;;;;;;4954895;29;20047;-76
2022/01/31 07:36:30;;;;;;;7.00;2.95;;;;;;;;;;4975380;29;20026;-76
2022/01/31 07:38:56;;;;;;;10.35;3.80;;;;;;;;;;4956952;29;20023;-76
2022/01/31 07:41:23;;;;;;;8.35;3.65;;;;;;;;;;4943371;29;20066;-76
2022/01/31 07:43:49;;;;;;;11.93;4.25;;;;;;;;;;4952366;29;20121;-76
2022/01/31 07:46:16;;;;;;;10.32;4.28;;;;;;;;;;4961211;29;20115;-78
2022/01/31 07:48:42;;;;;;;11.00;4.90;;;;;;;;;;4963276;28;20027;-78
2022/01/31 07:51:09;;;;;;;14.63;5.70;;;;;;;;;;4960613;29;20095;-78
2022/01/31 07:53:38;;;;;;;14.73;6.57;;;;;;;;;;4960186;29;20038;-78
2022/01/31 07:56:07;;;;;;;13.55;6.60;;;;;;;;;;4959924;29;20051;-77
2022/01/31 07:58:36;;;;;;;12.57;5.85;;;;;;;;;;4962027;29;20031;-78
2022/01/31 08:01:03;;;;;;;15.20;5.63;;;;;;;;;;4961446;29;20050;-78
2022/01/31 08:03:30;;;;;;;14.45;5.35;;;;;;;;;;4977499;29;20058;-77
2022/01/31 08:05:56;;;;;;;11.60;4.97;;;;;;;;;;4963286;28;20029;-78
2022/01/31 08:08:23;;;;;;;12.00;4.72;;;;;;;;;;4964291;29;20055;-78
2022/01/31 08:10:50;;;;;;;14.77;4.97;;;;;;;;;;4962579;29;20054;-80
2022/01/31 08:13:19;;;;;;;12.88;5.07;;;;;;;;;;4963075;29;20051;-80
2022/01/31 08:16:01;;;;;;;14.48;4.88;;;;;;;;;;4964638;28;20057;-79
2022/01/31 08:18:30;;;;;;;12.88;4.90;;;;;;;;;;4942887;29;20075;-80
2022/01/31 08:20:56;;;;;;;11.07;5.45;;;;;;;;;;4951285;29;20051;-77
2022/01/31 08:23:27;;;;;;;12.90;5.40;;;;;;;;;;4950331;29;20111;-78
2022/01/31 08:25:54;;;;;;;12.00;6.28;;;;;;;;;;4937892;29;20091;-78
2022/01/31 08:28:30;;;;;;;13.68;6.57;;;;;;;;;;4937082;29;20452;-78
2022/01/31 08:31:11;;;;;;;13.15;6.93;;;;;;;;;;4940449;29;20048;-81
2022/01/31 08:33:50;;;;;;;13.70;7.40;;;;;;;;;;4956131;29;20103;-81
2022/01/31 08:36:18;;;;;;;14.85;7.50;;;;;;;;;;4957025;29;20071;-80
2022/01/31 08:38:45;;;;;;;13.00;7.47;;;;;;;;;;4955098;29;20036;-80
2022/01/31 08:41:11;;;;;;;16.40;7.50;;;;;;;;;;4939321;29;20055;-80
2022/01/31 08:43:40;;;;;;;15.05;7.25;;;;;;;;;;4942199;29;20027;-79
2022/01/31 08:46:14;;;;;;;15.35;7.75;;;;;;;;;;4958423;29;20031;-79
2022/01/31 08:48:40;;;;;;;17.02;7.35;;;;;;;;;;4957262;29;20052;-79
2022/01/31 08:51:07;;;;;;;15.75;7.35;;;;;;;;;;4956756;29;20091;-79
2022/01/31 08:53:35;;;;;;;12.57;6.85;;;;;;;;;;4941553;29;20028;-80
2022/01/31 08:56:05;;;;;;;14.88;6.10;;;;;;;;;;4942475;29;20035;-79
2022/01/31 08:58:33;;;;;;;11.95;5.38;;;;;;;;;;4938958;29;20039;-79
2022/01/31 09:01:04;;;;;;;18.35;6.20;;;;;;;;;;4931043;29;20058;-79
2022/01/31 09:03:44;;;;;;;16.90;5.80;;;;;;;;;;4931985;29;20114;-78
2022/01/31 09:06:10;;;;;;;14.07;6.55;;;;;;;;;;4946602;29;20047;-78
2022/01/31 09:08:37;;;;;;;12.60;6.22;;;;;;;;;;4946989;29;20043;-79
2022/01/31 09:11:03;;;;;;;14.43;7.40;;;;;;;;;;4931562;29;20138;-78
2022/01/31 09:13:29;;;;;;;19.85;7.53;;;;;;;;;;4930399;29;20096;-78
2022/01/31 09:15:59;;;;;;;14.32;6.38;;;;;;;;;;4947656;29;20032;-79
2022/01/31 09:18:26;;;;;;;13.82;7.57;;;;;;;;;;4948257;29;20456;-79
2022/01/31 09:20:52;;;;;;;18.60;7.80;;;;;;;;;;4965216;29;20039;-79
2022/01/31 09:23:18;;;;;;;17.85;7.82;;;;;;;;;;4948408;29;20035;-78
2022/01/31 09:25:46;;;;;;;19.60;8.13;;;;;;;;;;4965692;29;20415;-79
2022/01/31 09:28:12;;;;;;;16.73;7.93;;;;;;;;;;4951242;29;20047;-78
2022/01/31 09:30:39;;;;;;;15.95;7.97;;;;;;;;;;4953962;29;20039;-78
2022/01/31 09:33:05;;;;;;;14.55;6.63;;;;;;;;;;4968592;29;20095;-78
2022/01/31 09:35:31;;;;;;;18.17;7.43;;;;;;;;;;4969314;29;20148;-79
2022/01/31 09:37:57;;;;;;;17.52;7.95;;;;;;;;;;4968990;29;20456;-79
2022/01/31 09:40:26;;;;;;;22.60;8.32;;;;;;;;;;4953904;29;20039;-78
2022/01/31 09:49:00;;;;;;;21.52;7.03;;;;;;;;;;4982895;28;20043;-80
2022/01/31 09:51:27;;;;;;;18.23;6.68;;;;;;;;;;4974060;29;20105;-79
2022/01/31 09:54:02;;;;;;;14.75;6.00;;;;;;;;;;4959393;29;20090;-78
2022/01/31 09:56:31;;;;;;;20.10;6.63;;;;;;;;;;4974985;28;20066;-77
2022/01/31 09:59:03;;;;;;;17.95;5.72;;;;;;;;;;4959899;29;20071;-77
2022/01/31 10:01:30;;;;;;;16.20;6.25;;;;;;;;;;4959157;29;20047;-78
2022/01/31 10:03:57;;;;;;;17.88;6.03;;;;;;;;;;4957129;29;20095;-79
2022/01/31 10:06:33;;;;;;;18.88;6.90;;;;;;;;;;4973510;29;20047;-78
2022/01/31 10:09:21;;;;;;;14.75;6.32;;;;;;;;;;4954251;29;20133;-77
2022/01/31 10:11:51;;;;;;;14.48;5.45;;;;;;;;;;4973566;28;20043;-78
2022/01/31 10:17:11;;;;;;;14.35;5.45;;;;;;;;;;4972756;28;20054;-79
2022/01/31 10:19:38;;;;;;;12.52;4.55;;;;;;;;;;4971015;28;20070;-79
2022/01/31 10:22:05;;;;;;;16.77;5.07;;;;;;;;;;4955629;29;20043;-79
2022/01/31 10:24:33;;;;;;;14.75;4.65;;;;;;;;;;4971262;29;20047;-78
2022/01/31 10:27:18;;;;;;;11.45;3.55;;;;;;;;;;4973078;28;20452;-78
2022/01/31 10:29:45;;;;;;;16.00;4.60;;;;;;;;;;4971134;29;20038;-79
2022/01/31 10:32:12;;;;;;;14.07;4.25;;;;;;;;;;4970194;29;20039;-78
2022/01/31 10:34:40;;;;;;;14.75;4.43;;;;;;;;;;4954196;29;20062;-77
2022/01/31 10:37:09;;;;;;;14.63;4.30;;;;;;;;;;4953973;29;20043;-77
2022/01/31 10:53:44;;;;;;;14.90;3.85;;;;;;;;;;4980561;29;20058;-77
2022/01/31 10:56:10;;;;;;;12.75;3.53;;;;;;;;;;4964690;29;20047;-78
2022/01/31 10:58:52;;;;;;;17.45;4.10;;;;;;;;;;4980229;29;20050;-79
2022/01/31 11:01:19;;;;;;;12.82;3.38;;;;;;;;;;4979322;28;20039;-78
2022/01/31 11:03:46;;;;;;;14.93;3.67;;;;;;;;;;4971301;29;20051;-78
2022/01/31 11:06:15;;;;;;;19.42;4.30;;;;;;;;;;4955007;29;20032;-78
2022/01/31 11:08:41;;;;;;;9.65;3.20;;;;;;;;;;4956828;29;20040;-79
2022/01/31 11:11:07;;;;;;;13.73;3.45;;;;;;;;;;4973355;29;20043;-78
2022/01/31 11:13:34;;;;;;;13.13;3.05;;;;;;;;;;4960645;29;20032;-79
2022/01/31 11:19:56;;;;;;;12.85;3.35;;;;;;;;;;4954235;29;20103;-79
2022/01/31 11:22:29;;;;;;;15.07;3.40;;;;;;;;;;4964341;28;20075;-79
2022/01/31 11:24:58;;;;;;;10.30;2.90;;;;;;;;;;4965856;28;20054;-78
2022/01/31 11:27:27;;;;;;;14.52;3.47;;;;;;;;;;4964255;29;20107;-78
2022/01/31 11:29:55;;;;;;;10.30;3.10;;;;;;;;;;4959566;29;20063;-77
2022/01/31 11:32:24;;;;;;;10.80;2.90;;;;;;;;;;4977080;29;20062;-78
2022/01/31 11:34:51;;;;;;;12.75;3.35;;;;;;;;;;4958538;29;20020;-78
2022/01/31 11:37:20;;;;;;;16.45;3.75;;;;;;;;;;4974988;29;20027;-78
2022/01/31 11:39:47;;;;;;;8.25;3.10;;;;;;;;;;4959452;29;20035;-78
2022/01/31 11:42:20;;;;;;;9.07;3.13;;;;;;;;;;4972750;29;20042;-79
2022/01/31 11:44:50;;;;;;;17.48;4.25;;;;;;;;;;4962783;28;20098;-79
2022/01/31 11:47:19;;;;;;;11.07;3.80;;;;;;;;;;4961961;29;20068;-78
2022/01/31 11:49:59;;;;;;;13.27;3.30;;;;;;;;;;4962244;29;20039;-82
2022/01/31 11:52:25;;;;;;;10.32;3.17;;;;;;;;;;4977438;28;20062;-81
2022/01/31 11:55:05;;;;;;;12.93;3.75;;;;;;;;;;4961584;29;20050;-80
2022/01/31 11:57:32;;;;;;;12.02;3.22;;;;;;;;;;4980667;28;20055;-80
2022/01/31 12:00:01;;;;;;;11.93;3.50;;;;;;;;;;4961161;29;20424;-79
2022/01/31 12:02:32;;;;;;;14.00;3.72;;;;;;;;;;4957088;29;20039;-81
2022/01/31 12:05:07;;;;;;;14.48;3.22;;;;;;;;;;4975048;29;20090;-78
2022/01/31 12:07:44;;;;;;;14.93;3.38;;;;;;;;;;4959848;29;20382;-80
2022/01/31 12:10:30;;;;;;;14.93;3.22;;;;;;;;;;4956906;29;20035;-81
2022/01/31 12:13:16;;;;;;;10.52;3.40;;;;;;;;;;4941351;29;20024;-80
2022/01/31 12:19:45;;;;;;;15.05;3.75;;;;;;;;;;4922084;29;20930;-80
2022/01/31 12:22:32;;;;;;;11.38;3.28;;;;;;;;;;4943160;29;20043;-80
2022/01/31 12:24:58;;;;;;;13.13;3.10;;;;;;;;;;4946383;29;20383;-80
2022/01/31 12:27:28;;;;;;;9.50;2.65;;;;;;;;;;4939733;29;20047;-79
2022/01/31 12:30:06;;;;;;;13.30;3.85;;;;;;;;;;4954724;29;20054;-79
2022/01/31 12:32:34;;;;;;;12.02;3.40;;;;;;;;;;4940839;29;20079;-80
2022/01/31 12:35:04;;;;;;;14.02;3.80;;;;;;;;;;4941009;29;20098;-79
2022/01/31 12:37:41;;;;;;;21.77;4.47;;;;;;;;;;4939202;29;20043;-79
2022/01/31 12:40:29;;;;;;;20.85;6.18;;;;;;;;;;4942974;29;20110;-80
2022/01/31 12:45:34;;;;;;;28.73;7.32;;;;;;;;;;4943467;29;20066;-77
2022/01/31 12:48:07;;;;;;;24.33;7.45;;;;;;;;;;4942438;29;20063;-77
2022/01/31 12:50:33;;;;;;;31.05;8.10;;;;;;;;;;4940979;29;20066;-78
2022/01/31 12:53:06;;;;;;;32.28;7.72;;;;;;;;;;4940933;29;20028;-77
2022/01/31 12:55:35;;;;;;;22.73;5.47;;;;;;;;;;4940073;29;20047;-77
2022/01/31 12:58:02;;;;;;;31.58;6.28;;;;;;;;;;4941095;29;20043;-77
2022/01/31 13:00:41;;;;;;;36.85;6.72;;;;;;;;;;4941304;29;20079;-78
2022/01/31 13:03:11;;;;;;;21.83;5.10;;;;;;;;;;4941120;29;20071;-77
2022/01/31 13:06:00;;;;;;;24.60;5.65;;;;;;;;;;4940590;29;20036;-77
2022/01/31 13:08:26;;;;;;;21.60;5.57;;;;;;;;;;4955879;29;20040;-77
2022/01/31 13:11:59;;;;;;;24.58;5.47;;;;;;;;;;4941751;29;20044;-78
2022/01/31 13:14:27;;;;;;;15.88;4.40;;;;;;;;;;4959132;29;20051;-77
2022/01/31 13:19:34;;;;;;;21.52;3.95;;;;;;;;;;4971664;28;20039;-78
2022/01/31 13:22:06;;;;;;;15.23;3.53;;;;;;;;;;4962667;29;20043;-79
2022/01/31 13:24:34;;;;;;;14.93;3.50;;;;;;;;;;4961869;29;20055;-79
2022/01/31 13:27:19;;;;;;;;;;;;;;;;;;;;;
2022/01/31 13:29:46;;;;;;;14.93;3.15;;;;;;;;;;4978989;28;20051;-79
2022/01/31 13:32:16;;;;;;;13.55;3.17;;;;;;;;;;4960694;29;20070;-78
2022/01/31 13:35:03;;;;;;;12.68;3.00;;;;;;;;;;4972526;29;20515;-78
2022/01/31 13:37:31;;;;;;;13.15;3.08;;;;;;;;;;4946443;29;20059;-81
2022/01/31 13:39:57;;;;;;;13.77;3.55;;;;;;;;;;4952732;29;20043;-80
2022/01/31 13:42:32;;;;;;;10.98;3.83;;;;;;;;;;4971502;29;20035;-78
2022/01/31 13:45:28;;;;;;;13.13;4.03;;;;;;;;;;4956024;29;20047;-78
2022/01/31 13:47:59;;;;;;;13.50;4.32;;;;;;;;;;4956953;29;20024;-78
2022/01/31 13:50:32;;;;;;;12.30;5.20;;;;;;;;;;4958749;29;20061;-81
2022/01/31 13:53:09;;;;;;;14.85;5.20;;;;;;;;;;4956817;29;20035;-81
2022/01/31 13:55:36;;;;;;;12.85;5.50;;;;;;;;;;4959405;29;20039;-81
2022/01/31 13:58:02;;;;;;;13.70;5.30;;;;;;;;;;4959322;29;20039;-78
2022/01/31 14:00:28;;;;;;;17.85;5.93;;;;;;;;;;4957039;29;20049;-77
2022/01/31 14:03:11;;;;;;;17.63;6.30;;;;;;;;;;4975758;28;20075;-78
2022/01/31 14:05:41;;;;;;;17.73;6.55;;;;;;;;;;4960104;29;20023;-77
2022/01/31 14:08:13;;;;;;;16.63;7.30;;;;;;;;;;4958730;29;20043;-78
2022/01/31 14:10:39;;;;;;;17.48;6.43;;;;;;;;;;4960110;29;20044;-80
2022/01/31 14:13:10;;;;;;;19.85;7.45;;;;;;;;;;4960611;29;20026;-81
2022/01/31 14:15:41;;;;;;;16.45;6.20;;;;;;;;;;4962224;29;20069;-81
2022/01/31 14:18:12;;;;;;;20.05;8.65;;;;;;;;;;4963484;28;20065;-81
2022/01/31 14:20:39;;;;;;;23.00;8.65;;;;;;;;;;4979416;29;20023;-82
2022/01/31 14:23:06;;;;;;;25.98;8.73;;;;;;;;;;4963477;29;20099;-81
2022/01/31 14:25:39;;;;;;;24.20;8.32;;;;;;;;;;4981890;28;20051;-79
2022/01/31 14:28:06;;;;;;;27.52;8.52;;;;;;;;;;4966852;28;20027;-78
2022/01/31 14:30:33;;;;;;;15.23;6.43;;;;;;;;;;4965287;29;20027;-81
2022/01/31 14:33:20;;;;;;;20.98;7.10;;;;;;;;;;4966570;28;20038;-79
2022/01/31 14:35:46;;;;;;;19.98;6.18;;;;;;;;;;4983284;28;20023;-78
2022/01/31 14:38:25;;;;;;;20.25;6.13;;;;;;;;;;4982828;28;20027;-78
2022/01/31 14:41:36;;;;;;;17.25;6.40;;;;;;;;;;4965275;29;20066;-79
2022/01/31 14:50:38;;;;;;;13.38;5.40;;;;;;;;;;4979614;28;20039;-80
2022/01/31 14:53:33;;;;;;;11.88;4.80;;;;;;;;;;4979022;28;20047;-80
2022/01/31 14:55:59;;;;;;;11.10;4.70;;;;;;;;;;4951474;29;20040;-79
2022/01/31 14:58:26;;;;;;;12.57;4.57;;;;;;;;;;4962476;29;20075;-79
2022/01/31 15:00:57;;;;;;;13.25;5.10;;;;;;;;;;4963031;29;20048;-80
2022/01/31 15:04:07;;;;;;;14.00;4.85;;;;;;;;;;4964403;29;20087;-79
2022/01/31 15:06:36;;;;;;;19.63;5.85;;;;;;;;;;4956612;29;20050;-79
2022/01/31 15:09:15;;;;;;;24.63;5.75;;;;;;;;;;4962422;29;20100;-79
2022/01/31 15:11:43;;;;;;;17.15;5.07;;;;;;;;;;4962733;29;20062;-78
2022/01/31 15:14:10;;;;;;;26.20;5.95;;;;;;;;;;4962934;29;20069;-79
2022/01/31 15:16:37;;;;;;;21.17;6.35;;;;;;;;;;4963432;29;20028;-79
2022/01/31 15:19:23;;;;;;;24.60;6.15;;;;;;;;;;4978092;28;20045;-79
2022/01/31 15:21:49;;;;;;;23.40;6.45;;;;;;;;;;4950233;29;20039;-78
2022/01/31 15:24:18;;;;;;;39.30;7.07;;;;;;;;;;4958465;29;20054;-79
2022/01/31 15:26:45;;;;;;;27.00;6.60;;;;;;;;;;4959820;29;20047;-79
2022/01/31 15:29:11;;;;;;;22.58;5.88;;;;;;;;;;4961887;29;20078;-78
2022/01/31 15:31:37;;;;;;;25.65;6.75;;;;;;;;;;4961882;29;20043;-78
2022/01/31 15:34:04;;;;;;;26.25;7.60;;;;;;;;;;4978619;29;20035;-79
2022/01/31 15:36:30;;;;;;;22.77;6.10;;;;;;;;;;4962043;29;20035;-79
2022/01/31 15:39:05;;;;;;;28.27;7.13;;;;;;;;;;4978858;29;20070;-80
2022/01/31 15:41:35;;;;;;;22.55;6.05;;;;;;;;;;4963581;28;20035;-80
2022/01/31 15:44:30;;;;;;;20.33;5.95;;;;;;;;;;4964203;28;20078;-82
2022/01/31 15:46:59;;;;;;;19.23;5.50;;;;;;;;;;4978953;29;20071;-82
2022/01/31 15:49:26;;;;;;;19.67;5.20;;;;;;;;;;4962464;29;20055;-82
2022/01/31 15:51:52;;;;;;;25.75;4.72;;;;;;;;;;4960025;29;20053;-78
2022/01/31 15:54:18;;;;;;;24.00;5.10;;;;;;;;;;4963898;29;20095;-79
2022/01/31 15:56:50;;;;;;;19.67;5.18;;;;;;;;;;4963933;29;20042;-79
2022/01/31 15:59:16;;;;;;;19.48;4.80;;;;;;;;;;4963774;29;20075;-82
2022/01/31 16:01:45;;;;;;;17.13;5.30;;;;;;;;;;4978730;28;20050;-77
2022/01/31 16:04:15;;;;;;;16.33;5.27;;;;;;;;;;4963118;29;20050;-79
2022/01/31 16:06:49;;;;;;;17.25;5.38;;;;;;;;;;4962762;29;20031;-81
2022/01/31 16:09:32;;;;;;;;;;;;;;;;;;;;;
2022/01/31 16:12:03;;;;;;;19.90;6.07;;;;;;;;;;4978673;29;20023;-82
2022/01/31 16:14:37;;;;;;;22.40;8.50;;;;;;;;;;4962345;29;20027;-80
2022/01/31 16:17:26;;;;;;;20.90;5.13;;;;;;;;;;4978328;29;20023;-83
2022/01/31 16:20:01;;;;;;;14.80;4.13;;;;;;;;;;4961076;29;20111;-79
2022/01/31 16:22:28;;;;;;;13.68;4.20;;;;;;;;;;4960878;29;20058;-79
2022/01/31 16:24:54;;;;;;;13.75;3.97;;;;;;;;;;4961296;29;20043;-78
2022/01/31 16:27:27;;;;;;;17.40;4.82;;;;;;;;;;4960976;29;20090;-77
2022/01/31 16:30:05;;;;;;;15.73;5.47;;;;;;;;;;4977937;29;20035;-77
2022/01/31 16:32:33;;;;;;;17.67;6.57;;;;;;;;;;4979374;28;20041;-79
2022/01/31 16:35:01;;;;;;;19.90;7.80;;;;;;;;;;4962152;29;20063;-77
2022/01/31 16:40:41;;;;;;;28.85;11.80;;;;;;;;;;4979782;28;20059;-78
2022/01/31 16:43:26;;;;;;;33.63;12.30;;;;;;;;;;4961748;29;20040;-80
2022/01/31 16:49:35;;;;;;;31.95;11.68;;;;;;;;;;4939318;29;20089;-77